Antonello — IKVS — position and weather

sailwx.info

Track history (hours):
 
Tides and Currents Weather Stations Pressure Air Temp Water Temp Dewpoint Dewpoint Depression Visibility Wind Speed Wind Dir Waves Ship Positions

Antonello

Last reported at 2014-Jul-21 12:27 UTC. Time now 2014-Jul-28 16:38 UTC.
Position N 38°28' E 015°43'.

Length 70 m; draft 4.2 m.

Type: Ship. MMSI: 247422000.

Date/timePositionNaut miles runAvg speedWind from/ knotsBaromVisibWave heightAir tempDewpointWater temp
2014-Jul-21 12:27N 38°28' E 015°43'16 1.6
2014-Jul-21 02:29N 38°26' E 015°24'14 1.1
2014-Jul-20 14:28N 38°24' E 015°06'11 9.3
2014-Jul-20 13:19N 38°23' E 015°20'8 9.0
2014-Jul-20 12:28N 38°21' E 015°30'8 8.7
2014-Jul-20 11:33N 38°19' E 015°39'8 6.7
2014-Jul-20 10:25N 38°11' E 015°37'8 0.3
2014-Jul-19 07:27N 38°19' E 015°35'90 3.1
2014-Jul-18 02:32N 39°32' E 014°27'44 8.8
2014-Jul-17 21:33N 40°16' E 014°20'9 8.9
2014-Jul-17 20:33N 40°24' E 014°19'9 9.0
2014-Jul-17 19:33N 40°33' E 014°17'9 9.0
2014-Jul-17 18:33N 40°42' E 014°17'8 8.1
2014-Jul-17 17:33N 40°50' E 014°16'1 0.1
2014-Jul-17 06:32N 40°50' E 014°17'9 9.3
2014-Jul-17 05:33N 40°41' E 014°18'10 9.8
2014-Jul-17 04:33N 40°31' E 014°19'10 9.8
2014-Jul-17 03:33N 40°22' E 014°24'10 9.8
2014-Jul-17 02:33N 40°13' E 014°28'10 9.9
2014-Jul-17 01:31N 40°03' E 014°32'102 2.3
2014-Jul-15 05:28N 38°26' E 015°14'2 0.1
2014-Jul-14 13:31N 38°24' E 015°12'8 8.4
2014-Jul-14 12:33N 38°23' E 015°23'10 8.2
2014-Jul-14 11:23N 38°21' E 015°35'7 7.8
2014-Jul-14 10:28N 38°17' E 015°42'5 5.4
2014-Jul-14 09:32N 38°14' E 015°37'6 6.5
2014-Jul-14 08:33N 38°08' E 015°37'9 8.3
2014-Jul-14 07:30N 37°59' E 015°35'13 0.5
2014-Jul-13 07:32N 38°12' E 015°35'  
Track history (hours):
 
Tides and Currents Weather Stations Pressure Air Temp Water Temp Dewpoint Dewpoint Depression Visibility Wind Speed Wind Dir Waves Ship Positions

Antonello

Last reported at 2014-Jul-21 12:27 UTC. Time now 2014-Jul-28 16:38 UTC.
Position N 38°28' E 015°43'.

Length 70 m; draft 4.2 m.

Type: Ship. MMSI: 247422000.

Date/timePositionNaut miles runAvg speedWind from/ knotsBaromVisibWave heightAir tempDewpointWater temp
2014-Jul-21 12:27N 38°28' E 015°43'16 1.6
2014-Jul-21 02:29N 38°26' E 015°24'14 1.1
2014-Jul-20 14:28N 38°24' E 015°06'11 9.3
2014-Jul-20 13:19N 38°23' E 015°20'8 9.0
2014-Jul-20 12:28N 38°21' E 015°30'8 8.7
2014-Jul-20 11:33N 38°19' E 015°39'8 6.7
2014-Jul-20 10:25N 38°11' E 015°37'8 0.3
2014-Jul-19 07:27N 38°19' E 015°35'90 3.1
2014-Jul-18 02:32N 39°32' E 014°27'44 8.8
2014-Jul-17 21:33N 40°16' E 014°20'9 8.9
2014-Jul-17 20:33N 40°24' E 014°19'9 9.0
2014-Jul-17 19:33N 40°33' E 014°17'9 9.0
2014-Jul-17 18:33N 40°42' E 014°17'8 8.1
2014-Jul-17 17:33N 40°50' E 014°16'1 0.1
2014-Jul-17 06:32N 40°50' E 014°17'9 9.3
2014-Jul-17 05:33N 40°41' E 014°18'10 9.8
2014-Jul-17 04:33N 40°31' E 014°19'10 9.8
2014-Jul-17 03:33N 40°22' E 014°24'10 9.8
2014-Jul-17 02:33N 40°13' E 014°28'10 9.9
2014-Jul-17 01:31N 40°03' E 014°32'102 2.3
2014-Jul-15 05:28N 38°26' E 015°14'2 0.1
2014-Jul-14 13:31N 38°24' E 015°12'8 8.4
2014-Jul-14 12:33N 38°23' E 015°23'10 8.2
2014-Jul-14 11:23N 38°21' E 015°35'7 7.8
2014-Jul-14 10:28N 38°17' E 015°42'5 5.4
2014-Jul-14 09:32N 38°14' E 015°37'6 6.5
2014-Jul-14 08:33N 38°08' E 015°37'9 8.3
2014-Jul-14 07:30N 37°59' E 015°35'13 0.5
2014-Jul-13 07:32N 38°12' E 015°35'  

Dump ship's entire track history